sensor_id;sensor_type;location;lat;lon;timestamp;P1;durP1;ratioP1;P2;durP2;ratioP2
70406;SDS011;57821;52.202;0.154;2022-11-20T00:00:54;29.20;;;13.00;;
70406;SDS011;57821;52.202;0.154;2022-11-20T00:03:21;25.23;;;11.70;;
70406;SDS011;57821;52.202;0.154;2022-11-20T00:05:48;26.70;;;12.15;;
70406;SDS011;57821;52.202;0.154;2022-11-20T00:08:15;27.38;;;13.10;;
70406;SDS011;57821;52.202;0.154;2022-11-20T00:10:41;25.63;;;12.40;;
70406;SDS011;57821;52.202;0.154;2022-11-20T00:13:08;27.27;;;13.10;;
70406;SDS011;57821;52.202;0.154;2022-11-20T00:15:34;28.77;;;13.82;;
70406;SDS011;57821;52.202;0.154;2022-11-20T00:18:01;29.75;;;13.68;;
70406;SDS011;57821;52.202;0.154;2022-11-20T00:20:27;24.73;;;13.55;;
70406;SDS011;57821;52.202;0.154;2022-11-20T00:22:54;25.83;;;13.48;;
70406;SDS011;57821;52.202;0.154;2022-11-20T00:25:20;30.30;;;13.75;;
70406;SDS011;57821;52.202;0.154;2022-11-20T00:27:47;22.58;;;12.70;;
70406;SDS011;57821;52.202;0.154;2022-11-20T00:30:13;26.33;;;14.38;;
70406;SDS011;57821;52.202;0.154;2022-11-20T00:32:40;29.83;;;14.73;;
70406;SDS011;57821;52.202;0.154;2022-11-20T00:35:07;34.88;;;14.30;;
70406;SDS011;57821;52.202;0.154;2022-11-20T00:37:33;32.35;;;14.57;;
70406;SDS011;57821;52.202;0.154;2022-11-20T00:40:00;30.25;;;15.82;;
70406;SDS011;57821;52.202;0.154;2022-11-20T00:42:26;34.95;;;16.17;;
70406;SDS011;57821;52.202;0.154;2022-11-20T00:44:53;40.60;;;17.50;;
70406;SDS011;57821;52.202;0.154;2022-11-20T00:47:20;42.83;;;18.30;;
70406;SDS011;57821;52.202;0.154;2022-11-20T00:49:46;50.00;;;19.08;;
70406;SDS011;57821;52.202;0.154;2022-11-20T00:52:13;45.35;;;17.73;;
70406;SDS011;57821;52.202;0.154;2022-11-20T00:54:39;45.63;;;17.23;;
70406;SDS011;57821;52.202;0.154;2022-11-20T00:57:05;45.83;;;18.52;;
70406;SDS011;57821;52.202;0.154;2022-11-20T00:59:32;47.17;;;20.42;;
70406;SDS011;57821;52.202;0.154;2022-11-20T01:01:58;52.53;;;20.55;;
70406;SDS011;57821;52.202;0.154;2022-11-20T01:04:25;57.20;;;21.02;;
70406;SDS011;57821;52.202;0.154;2022-11-20T01:06:51;47.60;;;19.75;;
70406;SDS011;57821;52.202;0.154;2022-11-20T01:09:18;54.58;;;21.52;;
70406;SDS011;57821;52.202;0.154;2022-11-20T01:11:45;51.85;;;20.00;;
70406;SDS011;57821;52.202;0.154;2022-11-20T01:14:15;58.05;;;21.67;;
70406;SDS011;57821;52.202;0.154;2022-11-20T01:16:44;58.60;;;21.63;;
70406;SDS011;57821;52.202;0.154;2022-11-20T01:19:18;66.90;;;22.00;;
70406;SDS011;57821;52.202;0.154;2022-11-20T01:21:48;47.95;;;19.60;;
70406;SDS011;57821;52.202;0.154;2022-11-20T01:24:19;63.40;;;20.60;;
70406;SDS011;57821;52.202;0.154;2022-11-20T01:26:47;53.45;;;20.92;;
70406;SDS011;57821;52.202;0.154;2022-11-20T01:29:19;60.75;;;21.25;;
70406;SDS011;57821;52.202;0.154;2022-11-20T01:31:48;57.15;;;21.90;;
70406;SDS011;57821;52.202;0.154;2022-11-20T01:34:16;60.10;;;22.15;;
70406;SDS011;57821;52.202;0.154;2022-11-20T01:36:44;66.45;;;23.38;;
70406;SDS011;57821;52.202;0.154;2022-11-20T01:41:39;73.47;;;22.73;;
70406;SDS011;57821;52.202;0.154;2022-11-20T01:44:06;77.10;;;23.20;;
70406;SDS011;57821;52.202;0.154;2022-11-20T01:46:34;68.38;;;23.77;;
70406;SDS011;57821;52.202;0.154;2022-11-20T01:49:14;70.65;;;23.73;;
70406;SDS011;57821;52.202;0.154;2022-11-20T01:54:35;77.78;;;23.25;;
70406;SDS011;57821;52.202;0.154;2022-11-20T01:57:06;74.80;;;23.00;;
70406;SDS011;57821;52.202;0.154;2022-11-20T01:59:37;69.57;;;23.15;;
70406;SDS011;57821;52.202;0.154;2022-11-20T02:02:09;72.82;;;23.05;;
70406;SDS011;57821;52.202;0.154;2022-11-20T02:04:36;73.75;;;24.23;;
70406;SDS011;57821;52.202;0.154;2022-11-20T02:07:02;67.45;;;22.75;;
70406;SDS011;57821;52.202;0.154;2022-11-20T02:09:31;77.70;;;24.58;;
70406;SDS011;57821;52.202;0.154;2022-11-20T02:11:57;80.93;;;23.63;;
70406;SDS011;57821;52.202;0.154;2022-11-20T02:14:25;73.97;;;23.15;;
70406;SDS011;57821;52.202;0.154;2022-11-20T02:16:52;71.70;;;23.35;;
70406;SDS011;57821;52.202;0.154;2022-11-20T02:19:27;68.03;;;23.48;;
70406;SDS011;57821;52.202;0.154;2022-11-20T02:22:04;83.57;;;23.80;;
70406;SDS011;57821;52.202;0.154;2022-11-20T02:24:37;81.18;;;24.92;;
70406;SDS011;57821;52.202;0.154;2022-11-20T02:27:11;82.90;;;22.55;;
70406;SDS011;57821;52.202;0.154;2022-11-20T02:29:52;83.72;;;22.80;;
70406;SDS011;57821;52.202;0.154;2022-11-20T02:32:22;67.63;;;21.75;;
70406;SDS011;57821;52.202;0.154;2022-11-20T02:34:49;66.32;;;20.90;;
70406;SDS011;57821;52.202;0.154;2022-11-20T02:37:16;65.07;;;20.02;;
70406;SDS011;57821;52.202;0.154;2022-11-20T02:39:44;70.53;;;21.52;;
70406;SDS011;57821;52.202;0.154;2022-11-20T02:42:13;77.22;;;22.10;;
70406;SDS011;57821;52.202;0.154;2022-11-20T02:44:40;70.35;;;19.85;;
70406;SDS011;57821;52.202;0.154;2022-11-20T02:47:06;68.68;;;21.33;;
70406;SDS011;57821;52.202;0.154;2022-11-20T02:49:33;75.57;;;21.65;;
70406;SDS011;57821;52.202;0.154;2022-11-20T02:51:59;63.97;;;19.77;;
70406;SDS011;57821;52.202;0.154;2022-11-20T02:54:26;66.13;;;20.27;;
70406;SDS011;57821;52.202;0.154;2022-11-20T02:56:53;64.85;;;19.17;;
70406;SDS011;57821;52.202;0.154;2022-11-20T02:59:19;56.30;;;18.58;;
70406;SDS011;57821;52.202;0.154;2022-11-20T03:01:46;59.05;;;18.88;;
70406;SDS011;57821;52.202;0.154;2022-11-20T03:04:13;62.05;;;19.90;;
70406;SDS011;57821;52.202;0.154;2022-11-20T03:06:39;57.28;;;18.33;;
70406;SDS011;57821;52.202;0.154;2022-11-20T03:09:06;53.63;;;16.73;;
70406;SDS011;57821;52.202;0.154;2022-11-20T03:11:32;53.15;;;16.75;;
70406;SDS011;57821;52.202;0.154;2022-11-20T03:14:01;45.90;;;16.42;;
70406;SDS011;57821;52.202;0.154;2022-11-20T03:16:30;50.65;;;16.85;;
70406;SDS011;57821;52.202;0.154;2022-11-20T03:18:57;45.30;;;15.50;;
70406;SDS011;57821;52.202;0.154;2022-11-20T03:21:24;42.25;;;15.25;;
70406;SDS011;57821;52.202;0.154;2022-11-20T03:23:50;49.78;;;16.77;;
70406;SDS011;57821;52.202;0.154;2022-11-20T03:31:24;50.72;;;16.85;;
70406;SDS011;57821;52.202;0.154;2022-11-20T03:33:52;48.53;;;17.10;;
70406;SDS011;57821;52.202;0.154;2022-11-20T03:36:20;39.80;;;14.85;;
70406;SDS011;57821;52.202;0.154;2022-11-20T03:38:47;44.08;;;15.80;;
70406;SDS011;57821;52.202;0.154;2022-11-20T03:41:18;42.95;;;15.50;;
70406;SDS011;57821;52.202;0.154;2022-11-20T03:43:47;43.40;;;16.55;;
70406;SDS011;57821;52.202;0.154;2022-11-20T03:46:14;45.60;;;15.75;;
70406;SDS011;57821;52.202;0.154;2022-11-20T03:48:41;45.92;;;15.27;;
70406;SDS011;57821;52.202;0.154;2022-11-20T03:51:14;42.03;;;14.68;;
70406;SDS011;57821;52.202;0.154;2022-11-20T03:53:45;37.92;;;13.75;;
70406;SDS011;57821;52.202;0.154;2022-11-20T03:56:13;44.78;;;15.45;;
70406;SDS011;57821;52.202;0.154;2022-11-20T03:58:41;40.15;;;14.60;;
70406;SDS011;57821;52.202;0.154;2022-11-20T04:01:09;39.08;;;14.80;;
70406;SDS011;57821;52.202;0.154;2022-11-20T04:03:38;37.30;;;12.90;;
70406;SDS011;57821;52.202;0.154;2022-11-20T04:06:10;41.35;;;16.33;;
70406;SDS011;57821;52.202;0.154;2022-11-20T04:08:38;36.38;;;15.27;;
70406;SDS011;57821;52.202;0.154;2022-11-20T04:13:39;38.13;;;14.73;;
70406;SDS011;57821;52.202;0.154;2022-11-20T04:16:07;42.30;;;14.35;;
70406;SDS011;57821;52.202;0.154;2022-11-20T04:18:35;41.65;;;15.57;;
70406;SDS011;57821;52.202;0.154;2022-11-20T04:21:02;35.65;;;13.88;;
70406;SDS011;57821;52.202;0.154;2022-11-20T04:23:30;42.70;;;14.07;;
70406;SDS011;57821;52.202;0.154;2022-11-20T04:28:29;39.25;;;15.15;;
70406;SDS011;57821;52.202;0.154;2022-11-20T04:31:01;41.22;;;14.40;;
70406;SDS011;57821;52.202;0.154;2022-11-20T04:33:35;42.67;;;13.70;;
70406;SDS011;57821;52.202;0.154;2022-11-20T04:36:04;42.65;;;13.40;;
70406;SDS011;57821;52.202;0.154;2022-11-20T04:38:32;36.40;;;14.40;;
70406;SDS011;57821;52.202;0.154;2022-11-20T04:40:59;37.15;;;14.45;;
70406;SDS011;57821;52.202;0.154;2022-11-20T04:43:26;36.50;;;13.05;;
70406;SDS011;57821;52.202;0.154;2022-11-20T04:45:54;40.25;;;12.82;;
70406;SDS011;57821;52.202;0.154;2022-11-20T04:48:21;30.15;;;12.35;;
70406;SDS011;57821;52.202;0.154;2022-11-20T04:50:48;31.45;;;11.82;;
70406;SDS011;57821;52.202;0.154;2022-11-20T04:53:15;27.02;;;10.82;;
70406;SDS011;57821;52.202;0.154;2022-11-20T04:55:41;29.48;;;11.07;;
70406;SDS011;57821;52.202;0.154;2022-11-20T04:58:08;31.02;;;10.50;;
70406;SDS011;57821;52.202;0.154;2022-11-20T05:00:34;24.17;;;10.15;;
70406;SDS011;57821;52.202;0.154;2022-11-20T05:03:01;28.10;;;9.85;;
70406;SDS011;57821;52.202;0.154;2022-11-20T05:05:27;23.17;;;9.10;;
70406;SDS011;57821;52.202;0.154;2022-11-20T05:07:57;20.70;;;7.90;;
70406;SDS011;57821;52.202;0.154;2022-11-20T05:10:24;24.48;;;7.72;;
70406;SDS011;57821;52.202;0.154;2022-11-20T05:12:51;22.05;;;7.47;;
70406;SDS011;57821;52.202;0.154;2022-11-20T05:15:19;22.05;;;7.53;;
70406;SDS011;57821;52.202;0.154;2022-11-20T05:17:52;17.65;;;7.00;;
70406;SDS011;57821;52.202;0.154;2022-11-20T05:20:19;27.55;;;8.30;;
70406;SDS011;57821;52.202;0.154;2022-11-20T05:22:46;18.58;;;6.82;;
70406;SDS011;57821;52.202;0.154;2022-11-20T05:25:12;17.88;;;6.65;;
70406;SDS011;57821;52.202;0.154;2022-11-20T05:27:39;16.00;;;6.97;;
70406;SDS011;57821;52.202;0.154;2022-11-20T05:30:06;20.27;;;6.95;;
70406;SDS011;57821;52.202;0.154;2022-11-20T05:32:33;20.88;;;6.57;;
70406;SDS011;57821;52.202;0.154;2022-11-20T05:34:59;16.85;;;6.93;;
70406;SDS011;57821;52.202;0.154;2022-11-20T05:37:26;15.77;;;6.63;;
70406;SDS011;57821;52.202;0.154;2022-11-20T05:39:52;18.80;;;5.72;;
70406;SDS011;57821;52.202;0.154;2022-11-20T05:42:19;15.65;;;6.00;;
70406;SDS011;57821;52.202;0.154;2022-11-20T05:44:45;19.80;;;6.22;;
70406;SDS011;57821;52.202;0.154;2022-11-20T05:47:12;15.90;;;6.43;;
70406;SDS011;57821;52.202;0.154;2022-11-20T05:49:38;18.20;;;5.43;;
70406;SDS011;57821;52.202;0.154;2022-11-20T05:52:05;12.93;;;4.78;;
70406;SDS011;57821;52.202;0.154;2022-11-20T05:54:31;21.85;;;5.55;;
70406;SDS011;57821;52.202;0.154;2022-11-20T05:56:58;13.60;;;4.32;;
70406;SDS011;57821;52.202;0.154;2022-11-20T05:59:24;12.60;;;4.68;;
70406;SDS011;57821;52.202;0.154;2022-11-20T06:01:51;12.35;;;4.72;;
70406;SDS011;57821;52.202;0.154;2022-11-20T06:04:17;17.48;;;4.60;;
70406;SDS011;57821;52.202;0.154;2022-11-20T06:06:44;12.95;;;4.22;;
70406;SDS011;57821;52.202;0.154;2022-11-20T06:09:10;12.95;;;4.15;;
70406;SDS011;57821;52.202;0.154;2022-11-20T06:11:37;17.27;;;4.50;;
70406;SDS011;57821;52.202;0.154;2022-11-20T06:14:03;22.02;;;4.63;;
70406;SDS011;57821;52.202;0.154;2022-11-20T06:16:30;14.18;;;4.85;;
70406;SDS011;57821;52.202;0.154;2022-11-20T06:18:56;18.48;;;4.50;;
70406;SDS011;57821;52.202;0.154;2022-11-20T06:21:23;18.17;;;4.78;;
70406;SDS011;57821;52.202;0.154;2022-11-20T06:23:50;14.70;;;4.40;;
70406;SDS011;57821;52.202;0.154;2022-11-20T06:26:19;13.52;;;3.80;;
70406;SDS011;57821;52.202;0.154;2022-11-20T06:28:47;14.65;;;4.93;;
70406;SDS011;57821;52.202;0.154;2022-11-20T06:31:15;15.27;;;4.57;;
70406;SDS011;57821;52.202;0.154;2022-11-20T06:33:43;11.32;;;4.32;;
70406;SDS011;57821;52.202;0.154;2022-11-20T06:36:10;23.10;;;5.60;;
70406;SDS011;57821;52.202;0.154;2022-11-20T06:38:39;12.30;;;4.65;;
70406;SDS011;57821;52.202;0.154;2022-11-20T06:41:06;15.30;;;5.22;;
70406;SDS011;57821;52.202;0.154;2022-11-20T06:43:36;16.73;;;5.82;;
70406;SDS011;57821;52.202;0.154;2022-11-20T06:46:02;13.80;;;5.22;;
70406;SDS011;57821;52.202;0.154;2022-11-20T06:48:29;20.27;;;4.97;;
70406;SDS011;57821;52.202;0.154;2022-11-20T06:50:56;22.10;;;5.05;;
70406;SDS011;57821;52.202;0.154;2022-11-20T06:53:23;16.85;;;4.70;;
70406;SDS011;57821;52.202;0.154;2022-11-20T06:55:50;16.85;;;4.35;;
70406;SDS011;57821;52.202;0.154;2022-11-20T06:58:17;17.38;;;5.20;;
70406;SDS011;57821;52.202;0.154;2022-11-20T07:00:44;14.75;;;5.18;;
70406;SDS011;57821;52.202;0.154;2022-11-20T07:03:11;21.00;;;5.15;;
70406;SDS011;57821;52.202;0.154;2022-11-20T07:05:38;14.55;;;4.90;;
70406;SDS011;57821;52.202;0.154;2022-11-20T07:08:04;18.67;;;5.90;;
70406;SDS011;57821;52.202;0.154;2022-11-20T07:10:31;21.67;;;5.47;;
70406;SDS011;57821;52.202;0.154;2022-11-20T07:12:58;18.10;;;5.95;;
70406;SDS011;57821;52.202;0.154;2022-11-20T07:15:25;15.93;;;5.68;;
70406;SDS011;57821;52.202;0.154;2022-11-20T07:17:52;20.95;;;5.43;;
70406;SDS011;57821;52.202;0.154;2022-11-20T07:20:18;14.57;;;4.82;;
70406;SDS011;57821;52.202;0.154;2022-11-20T07:22:45;14.35;;;5.30;;
70406;SDS011;57821;52.202;0.154;2022-11-20T07:25:11;14.75;;;5.10;;
70406;SDS011;57821;52.202;0.154;2022-11-20T07:27:38;17.75;;;5.00;;
70406;SDS011;57821;52.202;0.154;2022-11-20T07:30:05;16.02;;;4.88;;
70406;SDS011;57821;52.202;0.154;2022-11-20T07:32:32;14.50;;;5.32;;
70406;SDS011;57821;52.202;0.154;2022-11-20T07:34:58;13.38;;;4.63;;
70406;SDS011;57821;52.202;0.154;2022-11-20T07:37:24;15.43;;;5.25;;
70406;SDS011;57821;52.202;0.154;2022-11-20T07:39:51;12.10;;;4.43;;
70406;SDS011;57821;52.202;0.154;2022-11-20T07:42:17;17.13;;;5.50;;
70406;SDS011;57821;52.202;0.154;2022-11-20T07:44:44;14.98;;;4.82;;
70406;SDS011;57821;52.202;0.154;2022-11-20T07:47:10;14.73;;;5.07;;
70406;SDS011;57821;52.202;0.154;2022-11-20T07:49:37;14.95;;;4.45;;
70406;SDS011;57821;52.202;0.154;2022-11-20T07:52:04;13.77;;;4.35;;
70406;SDS011;57821;52.202;0.154;2022-11-20T07:54:30;16.08;;;4.90;;
70406;SDS011;57821;52.202;0.154;2022-11-20T07:56:57;13.25;;;4.32;;
70406;SDS011;57821;52.202;0.154;2022-11-20T07:59:24;12.30;;;4.60;;
70406;SDS011;57821;52.202;0.154;2022-11-20T08:01:50;13.45;;;4.40;;
70406;SDS011;57821;52.202;0.154;2022-11-20T08:04:17;12.02;;;4.80;;
70406;SDS011;57821;52.202;0.154;2022-11-20T08:06:43;15.57;;;4.40;;
70406;SDS011;57821;52.202;0.154;2022-11-20T08:09:10;11.35;;;4.35;;
70406;SDS011;57821;52.202;0.154;2022-11-20T08:11:36;10.82;;;4.20;;
70406;SDS011;57821;52.202;0.154;2022-11-20T08:14:03;10.57;;;4.38;;
70406;SDS011;57821;52.202;0.154;2022-11-20T08:16:29;10.00;;;4.18;;
70406;SDS011;57821;52.202;0.154;2022-11-20T08:18:56;10.77;;;3.97;;
70406;SDS011;57821;52.202;0.154;2022-11-20T08:21:22;15.55;;;4.22;;
70406;SDS011;57821;52.202;0.154;2022-11-20T08:23:49;10.23;;;3.70;;
70406;SDS011;57821;52.202;0.154;2022-11-20T08:26:15;16.45;;;4.30;;
70406;SDS011;57821;52.202;0.154;2022-11-20T08:28:42;11.43;;;4.40;;
70406;SDS011;57821;52.202;0.154;2022-11-20T08:31:09;11.45;;;4.72;;
70406;SDS011;57821;52.202;0.154;2022-11-20T08:33:36;10.63;;;4.78;;
70406;SDS011;57821;52.202;0.154;2022-11-20T08:36:02;15.02;;;4.97;;
70406;SDS011;57821;52.202;0.154;2022-11-20T08:38:30;14.15;;;5.25;;
70406;SDS011;57821;52.202;0.154;2022-11-20T08:41:01;11.45;;;4.85;;
70406;SDS011;57821;52.202;0.154;2022-11-20T08:43:29;10.65;;;4.47;;
70406;SDS011;57821;52.202;0.154;2022-11-20T08:45:56;11.85;;;4.50;;
70406;SDS011;57821;52.202;0.154;2022-11-20T08:48:23;8.45;;;3.78;;
70406;SDS011;57821;52.202;0.154;2022-11-20T08:50:49;9.60;;;4.22;;
70406;SDS011;57821;52.202;0.154;2022-11-20T08:53:16;11.63;;;3.88;;
70406;SDS011;57821;52.202;0.154;2022-11-20T08:55:42;16.02;;;4.88;;
70406;SDS011;57821;52.202;0.154;2022-11-20T08:58:09;8.30;;;3.20;;
70406;SDS011;57821;52.202;0.154;2022-11-20T09:00:35;10.15;;;3.40;;
70406;SDS011;57821;52.202;0.154;2022-11-20T09:03:02;12.90;;;3.50;;
70406;SDS011;57821;52.202;0.154;2022-11-20T09:05:29;10.13;;;3.70;;
70406;SDS011;57821;52.202;0.154;2022-11-20T09:07:56;10.60;;;3.47;;
70406;SDS011;57821;52.202;0.154;2022-11-20T09:10:23;7.97;;;2.83;;
70406;SDS011;57821;52.202;0.154;2022-11-20T09:12:50;11.60;;;3.60;;
70406;SDS011;57821;52.202;0.154;2022-11-20T09:15:18;9.80;;;3.17;;
70406;SDS011;57821;52.202;0.154;2022-11-20T09:17:57;9.45;;;2.97;;
70406;SDS011;57821;52.202;0.154;2022-11-20T09:20:25;7.00;;;2.60;;
70406;SDS011;57821;52.202;0.154;2022-11-20T09:22:53;11.23;;;3.63;;
70406;SDS011;57821;52.202;0.154;2022-11-20T09:25:20;10.75;;;3.60;;
70406;SDS011;57821;52.202;0.154;2022-11-20T09:27:47;6.65;;;2.45;;
70406;SDS011;57821;52.202;0.154;2022-11-20T09:30:14;10.45;;;2.38;;
70406;SDS011;57821;52.202;0.154;2022-11-20T09:32:41;10.35;;;2.80;;
70406;SDS011;57821;52.202;0.154;2022-11-20T09:35:09;7.78;;;2.33;;
70406;SDS011;57821;52.202;0.154;2022-11-20T09:37:36;12.90;;;2.90;;
70406;SDS011;57821;52.202;0.154;2022-11-20T09:40:02;13.35;;;2.92;;
70406;SDS011;57821;52.202;0.154;2022-11-20T09:45:30;18.13;;;2.65;;
70406;SDS011;57821;52.202;0.154;2022-11-20T09:56:03;13.63;;;3.47;;
70406;SDS011;57821;52.202;0.154;2022-11-20T09:58:32;16.20;;;2.63;;
70406;SDS011;57821;52.202;0.154;2022-11-20T10:01:09;12.65;;;2.75;;
70406;SDS011;57821;52.202;0.154;2022-11-20T10:06:37;13.20;;;2.15;;
70406;SDS011;57821;52.202;0.154;2022-11-20T10:11:46;7.72;;;2.20;;
70406;SDS011;57821;52.202;0.154;2022-11-20T10:17:03;10.65;;;2.33;;
70406;SDS011;57821;52.202;0.154;2022-11-20T10:19:59;8.38;;;1.95;;
70406;SDS011;57821;52.202;0.154;2022-11-20T10:34:16;11.10;;;2.45;;
70406;SDS011;57821;52.202;0.154;2022-11-20T10:36:56;12.32;;;2.20;;
70406;SDS011;57821;52.202;0.154;2022-11-20T10:39:33;12.98;;;1.95;;
70406;SDS011;57821;52.202;0.154;2022-11-20T10:42:11;12.93;;;2.42;;
70406;SDS011;57821;52.202;0.154;2022-11-20T10:44:47;13.50;;;1.85;;
70406;SDS011;57821;52.202;0.154;2022-11-20T10:47:22;11.23;;;1.98;;
70406;SDS011;57821;52.202;0.154;2022-11-20T10:49:50;11.90;;;2.40;;
70406;SDS011;57821;52.202;0.154;2022-11-20T11:00:48;13.55;;;2.30;;
70406;SDS011;57821;52.202;0.154;2022-11-20T11:03:25;12.77;;;1.88;;
70406;SDS011;57821;52.202;0.154;2022-11-20T11:05:57;15.15;;;2.60;;
70406;SDS011;57821;52.202;0.154;2022-11-20T11:08:26;15.35;;;2.22;;
70406;SDS011;57821;52.202;0.154;2022-11-20T11:10:59;13.10;;;2.50;;
70406;SDS011;57821;52.202;0.154;2022-11-20T11:13:29;21.55;;;3.75;;
70406;SDS011;57821;52.202;0.154;2022-11-20T11:15:57;14.30;;;2.28;;
70406;SDS011;57821;52.202;0.154;2022-11-20T11:18:30;13.50;;;2.47;;
70406;SDS011;57821;52.202;0.154;2022-11-20T11:20:59;16.55;;;2.95;;
70406;SDS011;57821;52.202;0.154;2022-11-20T11:26:20;14.38;;;3.13;;
70406;SDS011;57821;52.202;0.154;2022-11-20T11:29:22;14.77;;;2.30;;
70406;SDS011;57821;52.202;0.154;2022-11-20T11:31:43;16.02;;;2.53;;
70406;SDS011;57821;52.202;0.154;2022-11-20T11:34:12;19.92;;;2.80;;
70406;SDS011;57821;52.202;0.154;2022-11-20T11:36:39;14.90;;;2.30;;
70406;SDS011;57821;52.202;0.154;2022-11-20T11:39:08;19.95;;;3.88;;
70406;SDS011;57821;52.202;0.154;2022-11-20T11:41:40;20.92;;;3.55;;
70406;SDS011;57821;52.202;0.154;2022-11-20T11:44:27;16.58;;;3.40;;
70406;SDS011;57821;52.202;0.154;2022-11-20T11:46:56;11.82;;;2.58;;
70406;SDS011;57821;52.202;0.154;2022-11-20T11:49:24;24.40;;;3.47;;
70406;SDS011;57821;52.202;0.154;2022-11-20T11:57:05;17.30;;;3.05;;
70406;SDS011;57821;52.202;0.154;2022-11-20T12:02:15;18.23;;;3.10;;
70406;SDS011;57821;52.202;0.154;2022-11-20T12:04:57;19.13;;;2.90;;
70406;SDS011;57821;52.202;0.154;2022-11-20T12:10:21;20.98;;;3.30;;
70406;SDS011;57821;52.202;0.154;2022-11-20T12:13:14;18.80;;;2.92;;
70406;SDS011;57821;52.202;0.154;2022-11-20T12:15:43;19.83;;;2.70;;
70406;SDS011;57821;52.202;0.154;2022-11-20T12:18:18;19.30;;;3.60;;
70406;SDS011;57821;52.202;0.154;2022-11-20T12:23:40;21.25;;;3.95;;
70406;SDS011;57821;52.202;0.154;2022-11-20T12:29:21;29.70;;;4.05;;
70406;SDS011;57821;52.202;0.154;2022-11-20T12:35:05;24.50;;;3.42;;
70406;SDS011;57821;52.202;0.154;2022-11-20T12:43:21;23.83;;;4.13;;
70406;SDS011;57821;52.202;0.154;2022-11-20T12:54:13;16.02;;;3.38;;
70406;SDS011;57821;52.202;0.154;2022-11-20T12:57:06;26.70;;;3.55;;
70406;SDS011;57821;52.202;0.154;2022-11-20T12:59:49;17.85;;;3.50;;
70406;SDS011;57821;52.202;0.154;2022-11-20T13:02:36;18.77;;;3.53;;
70406;SDS011;57821;52.202;0.154;2022-11-20T13:13:43;18.75;;;3.15;;
70406;SDS011;57821;52.202;0.154;2022-11-20T13:16:35;22.73;;;3.92;;
70406;SDS011;57821;52.202;0.154;2022-11-20T13:19:09;20.92;;;3.13;;
70406;SDS011;57821;52.202;0.154;2022-11-20T13:24:27;19.05;;;3.00;;
70406;SDS011;57821;52.202;0.154;2022-11-20T13:29:35;22.10;;;2.97;;
70406;SDS011;57821;52.202;0.154;2022-11-20T13:32:04;18.98;;;3.13;;
70406;SDS011;57821;52.202;0.154;2022-11-20T13:34:54;17.92;;;3.28;;
70406;SDS011;57821;52.202;0.154;2022-11-20T13:37:35;19.60;;;3.20;;
70406;SDS011;57821;52.202;0.154;2022-11-20T13:42:39;18.48;;;3.17;;
70406;SDS011;57821;52.202;0.154;2022-11-20T13:45:27;16.50;;;3.30;;
70406;SDS011;57821;52.202;0.154;2022-11-20T13:47:56;17.52;;;3.95;;
70406;SDS011;57821;52.202;0.154;2022-11-20T13:53:09;22.35;;;3.38;;
70406;SDS011;57821;52.202;0.154;2022-11-20T13:58:44;21.92;;;3.20;;
70406;SDS011;57821;52.202;0.154;2022-11-20T14:01:17;21.52;;;3.65;;
70406;SDS011;57821;52.202;0.154;2022-11-20T14:03:47;17.88;;;4.65;;
70406;SDS011;57821;52.202;0.154;2022-11-20T14:06:33;20.75;;;4.05;;
70406;SDS011;57821;52.202;0.154;2022-11-20T14:09:12;15.75;;;3.00;;
70406;SDS011;57821;52.202;0.154;2022-11-20T14:11:50;20.05;;;4.95;;
70406;SDS011;57821;52.202;0.154;2022-11-20T14:14:17;23.17;;;3.25;;
70406;SDS011;57821;52.202;0.154;2022-11-20T14:16:46;21.98;;;2.88;;
70406;SDS011;57821;52.202;0.154;2022-11-20T14:21:51;13.43;;;2.70;;
70406;SDS011;57821;52.202;0.154;2022-11-20T14:24:20;18.92;;;3.90;;
70406;SDS011;57821;52.202;0.154;2022-11-20T14:26:49;13.70;;;2.60;;
70406;SDS011;57821;52.202;0.154;2022-11-20T14:29:22;18.48;;;4.32;;
70406;SDS011;57821;52.202;0.154;2022-11-20T14:31:53;15.15;;;3.85;;
70406;SDS011;57821;52.202;0.154;2022-11-20T14:34:22;20.60;;;3.78;;
70406;SDS011;57821;52.202;0.154;2022-11-20T14:36:59;28.02;;;5.18;;
70406;SDS011;57821;52.202;0.154;2022-11-20T14:39:32;16.33;;;3.38;;
70406;SDS011;57821;52.202;0.154;2022-11-20T14:42:00;25.35;;;3.33;;
70406;SDS011;57821;52.202;0.154;2022-11-20T14:44:28;20.75;;;4.57;;
70406;SDS011;57821;52.202;0.154;2022-11-20T14:47:00;14.65;;;2.90;;
70406;SDS011;57821;52.202;0.154;2022-11-20T14:49:29;22.40;;;2.95;;
70406;SDS011;57821;52.202;0.154;2022-11-20T14:52:02;14.55;;;2.97;;
70406;SDS011;57821;52.202;0.154;2022-11-20T14:54:43;19.60;;;3.45;;
70406;SDS011;57821;52.202;0.154;2022-11-20T14:57:28;16.13;;;3.22;;
70406;SDS011;57821;52.202;0.154;2022-11-20T15:00:07;17.88;;;3.17;;
70406;SDS011;57821;52.202;0.154;2022-11-20T15:02:44;23.33;;;3.72;;
70406;SDS011;57821;52.202;0.154;2022-11-20T15:05:12;24.55;;;4.22;;
70406;SDS011;57821;52.202;0.154;2022-11-20T15:07:41;15.07;;;2.80;;
70406;SDS011;57821;52.202;0.154;2022-11-20T15:10:23;16.13;;;3.22;;
70406;SDS011;57821;52.202;0.154;2022-11-20T15:15:26;22.90;;;3.53;;
70406;SDS011;57821;52.202;0.154;2022-11-20T15:17:57;17.15;;;3.50;;
70406;SDS011;57821;52.202;0.154;2022-11-20T15:20:26;18.45;;;3.80;;
70406;SDS011;57821;52.202;0.154;2022-11-20T15:22:54;15.88;;;2.90;;
70406;SDS011;57821;52.202;0.154;2022-11-20T15:25:21;14.88;;;3.40;;
70406;SDS011;57821;52.202;0.154;2022-11-20T15:27:48;13.32;;;2.88;;
70406;SDS011;57821;52.202;0.154;2022-11-20T15:30:20;21.90;;;2.75;;
70406;SDS011;57821;52.202;0.154;2022-11-20T15:32:47;19.33;;;3.28;;
70406;SDS011;57821;52.202;0.154;2022-11-20T15:35:14;14.02;;;2.90;;
70406;SDS011;57821;52.202;0.154;2022-11-20T15:37:41;15.52;;;2.83;;
70406;SDS011;57821;52.202;0.154;2022-11-20T15:40:09;15.57;;;3.42;;
70406;SDS011;57821;52.202;0.154;2022-11-20T15:42:36;19.15;;;4.55;;
70406;SDS011;57821;52.202;0.154;2022-11-20T15:45:03;14.60;;;3.72;;
70406;SDS011;57821;52.202;0.154;2022-11-20T15:47:31;17.65;;;3.15;;
70406;SDS011;57821;52.202;0.154;2022-11-20T15:49:59;17.77;;;3.70;;
70406;SDS011;57821;52.202;0.154;2022-11-20T15:52:26;12.65;;;2.72;;
70406;SDS011;57821;52.202;0.154;2022-11-20T15:55:01;17.33;;;4.10;;
70406;SDS011;57821;52.202;0.154;2022-11-20T15:57:34;19.88;;;3.28;;
70406;SDS011;57821;52.202;0.154;2022-11-20T16:00:01;21.10;;;4.50;;
70406;SDS011;57821;52.202;0.154;2022-11-20T16:02:36;23.60;;;3.45;;
70406;SDS011;57821;52.202;0.154;2022-11-20T16:05:02;27.67;;;3.88;;
70406;SDS011;57821;52.202;0.154;2022-11-20T16:07:29;18.25;;;3.42;;
70406;SDS011;57821;52.202;0.154;2022-11-20T16:09:56;16.83;;;3.67;;
70406;SDS011;57821;52.202;0.154;2022-11-20T16:12:23;18.35;;;4.07;;
70406;SDS011;57821;52.202;0.154;2022-11-20T16:14:50;15.13;;;2.78;;
70406;SDS011;57821;52.202;0.154;2022-11-20T16:17:18;28.10;;;5.63;;
70406;SDS011;57821;52.202;0.154;2022-11-20T16:19:44;14.57;;;3.38;;
70406;SDS011;57821;52.202;0.154;2022-11-20T16:22:11;18.85;;;2.92;;
70406;SDS011;57821;52.202;0.154;2022-11-20T16:24:37;19.30;;;2.97;;
70406;SDS011;57821;52.202;0.154;2022-11-20T16:27:04;23.77;;;4.50;;
70406;SDS011;57821;52.202;0.154;2022-11-20T16:29:31;20.85;;;5.18;;
70406;SDS011;57821;52.202;0.154;2022-11-20T16:31:57;19.08;;;2.75;;
70406;SDS011;57821;52.202;0.154;2022-11-20T16:34:24;18.10;;;3.58;;
70406;SDS011;57821;52.202;0.154;2022-11-20T16:36:51;20.63;;;4.55;;
70406;SDS011;57821;52.202;0.154;2022-11-20T16:39:17;20.23;;;4.30;;
70406;SDS011;57821;52.202;0.154;2022-11-20T16:44:15;24.85;;;4.30;;